sensor_id;sensor_type;location;lat;lon;timestamp;pressure;altitude;pressure_sealevel;temperature
12875;BMP180;6505;51.114;13.128;2023-04-23T00:02:05;98761.00;;;20.90
12875;BMP180;6505;51.114;13.128;2023-04-23T00:04:36;98761.00;;;20.90
12875;BMP180;6505;51.114;13.128;2023-04-23T00:07:06;98760.00;;;20.90
12875;BMP180;6505;51.114;13.128;2023-04-23T00:09:35;98749.00;;;20.90
12875;BMP180;6505;51.114;13.128;2023-04-23T00:12:04;98763.00;;;20.90
12875;BMP180;6505;51.114;13.128;2023-04-23T00:14:35;98753.00;;;20.80
12875;BMP180;6505;51.114;13.128;2023-04-23T00:17:03;98756.00;;;20.80
12875;BMP180;6505;51.114;13.128;2023-04-23T00:19:32;98755.00;;;20.90
12875;BMP180;6505;51.114;13.128;2023-04-23T00:21:59;98753.00;;;20.90
12875;BMP180;6505;51.114;13.128;2023-04-23T00:24:28;98748.00;;;20.80
12875;BMP180;6505;51.114;13.128;2023-04-23T00:26:57;98755.00;;;20.80
12875;BMP180;6505;51.114;13.128;2023-04-23T00:29:26;98752.00;;;20.80
12875;BMP180;6505;51.114;13.128;2023-04-23T00:31:55;98752.00;;;20.80
12875;BMP180;6505;51.114;13.128;2023-04-23T00:34:24;98749.00;;;20.80
12875;BMP180;6505;51.114;13.128;2023-04-23T00:36:52;98739.00;;;20.80
12875;BMP180;6505;51.114;13.128;2023-04-23T00:39:21;98742.00;;;20.80
12875;BMP180;6505;51.114;13.128;2023-04-23T00:41:49;98742.00;;;20.80
12875;BMP180;6505;51.114;13.128;2023-04-23T00:44:17;98746.00;;;20.80
12875;BMP180;6505;51.114;13.128;2023-04-23T00:46:45;98744.00;;;20.80
12875;BMP180;6505;51.114;13.128;2023-04-23T00:49:16;98743.00;;;20.80
12875;BMP180;6505;51.114;13.128;2023-04-23T00:51:44;98742.00;;;20.80
12875;BMP180;6505;51.114;13.128;2023-04-23T00:54:13;98742.00;;;20.80
12875;BMP180;6505;51.114;13.128;2023-04-23T00:56:42;98738.00;;;20.80
12875;BMP180;6505;51.114;13.128;2023-04-23T00:59:10;98739.00;;;20.80
12875;BMP180;6505;51.114;13.128;2023-04-23T01:01:38;98726.00;;;20.70
12875;BMP180;6505;51.114;13.128;2023-04-23T01:04:07;98736.00;;;20.70
12875;BMP180;6505;51.114;13.128;2023-04-23T01:06:38;98731.00;;;20.70
12875;BMP180;6505;51.114;13.128;2023-04-23T01:09:07;98735.00;;;20.70
12875;BMP180;6505;51.114;13.128;2023-04-23T01:11:38;98737.00;;;20.70
12875;BMP180;6505;51.114;13.128;2023-04-23T01:14:07;98729.00;;;20.70
12875;BMP180;6505;51.114;13.128;2023-04-23T01:16:36;98728.00;;;20.70
12875;BMP180;6505;51.114;13.128;2023-04-23T01:19:06;98731.00;;;20.70
12875;BMP180;6505;51.114;13.128;2023-04-23T01:21:38;98720.00;;;20.70
12875;BMP180;6505;51.114;13.128;2023-04-23T01:24:09;98727.00;;;20.70
12875;BMP180;6505;51.114;13.128;2023-04-23T01:26:38;98726.00;;;20.70
12875;BMP180;6505;51.114;13.128;2023-04-23T01:29:07;98731.00;;;20.70
12875;BMP180;6505;51.114;13.128;2023-04-23T01:31:37;98727.00;;;20.70
12875;BMP180;6505;51.114;13.128;2023-04-23T01:34:08;98728.00;;;20.60
12875;BMP180;6505;51.114;13.128;2023-04-23T01:36:37;98733.00;;;20.60
12875;BMP180;6505;51.114;13.128;2023-04-23T01:39:05;98731.00;;;20.60
12875;BMP180;6505;51.114;13.128;2023-04-23T01:41:35;98731.00;;;20.60
12875;BMP180;6505;51.114;13.128;2023-04-23T01:44:04;98721.00;;;20.60
12875;BMP180;6505;51.114;13.128;2023-04-23T01:46:33;98728.00;;;20.60
12875;BMP180;6505;51.114;13.128;2023-04-23T01:49:01;98724.00;;;20.60
12875;BMP180;6505;51.114;13.128;2023-04-23T01:51:30;98725.00;;;20.60
12875;BMP180;6505;51.114;13.128;2023-04-23T01:53:58;98735.00;;;20.60
12875;BMP180;6505;51.114;13.128;2023-04-23T01:56:27;98729.00;;;20.60
12875;BMP180;6505;51.114;13.128;2023-04-23T01:58:57;98734.00;;;20.60
12875;BMP180;6505;51.114;13.128;2023-04-23T02:01:39;98735.00;;;20.50
12875;BMP180;6505;51.114;13.128;2023-04-23T02:04:08;98729.00;;;20.50
12875;BMP180;6505;51.114;13.128;2023-04-23T02:06:37;98725.00;;;20.50
12875;BMP180;6505;51.114;13.128;2023-04-23T02:09:06;98722.00;;;20.50
12875;BMP180;6505;51.114;13.128;2023-04-23T02:11:34;98727.00;;;20.50
12875;BMP180;6505;51.114;13.128;2023-04-23T02:14:04;98728.00;;;20.50
12875;BMP180;6505;51.114;13.128;2023-04-23T02:16:32;98721.00;;;20.50
12875;BMP180;6505;51.114;13.128;2023-04-23T02:19:01;98730.00;;;20.50
12875;BMP180;6505;51.114;13.128;2023-04-23T02:21:29;98725.00;;;20.50
12875;BMP180;6505;51.114;13.128;2023-04-23T02:23:57;98723.00;;;20.50
12875;BMP180;6505;51.114;13.128;2023-04-23T02:26:25;98722.00;;;20.50
12875;BMP180;6505;51.114;13.128;2023-04-23T02:28:54;98720.00;;;20.50
12875;BMP180;6505;51.114;13.128;2023-04-23T02:31:24;98715.00;;;20.50
12875;BMP180;6505;51.114;13.128;2023-04-23T02:33:53;98712.00;;;20.50
12875;BMP180;6505;51.114;13.128;2023-04-23T02:36:21;98713.00;;;20.50
12875;BMP180;6505;51.114;13.128;2023-04-23T02:38:49;98708.00;;;20.50
12875;BMP180;6505;51.114;13.128;2023-04-23T02:41:17;98696.00;;;20.40
12875;BMP180;6505;51.114;13.128;2023-04-23T02:43:45;98701.00;;;20.50
12875;BMP180;6505;51.114;13.128;2023-04-23T02:46:13;98705.00;;;20.40
12875;BMP180;6505;51.114;13.128;2023-04-23T02:48:43;98695.00;;;20.40
12875;BMP180;6505;51.114;13.128;2023-04-23T02:51:12;98693.00;;;20.40
12875;BMP180;6505;51.114;13.128;2023-04-23T02:53:40;98691.00;;;20.40
12875;BMP180;6505;51.114;13.128;2023-04-23T02:56:08;98701.00;;;20.40
12875;BMP180;6505;51.114;13.128;2023-04-23T02:58:36;98690.00;;;20.40
12875;BMP180;6505;51.114;13.128;2023-04-23T03:01:05;98685.00;;;20.40
12875;BMP180;6505;51.114;13.128;2023-04-23T03:03:33;98689.00;;;20.40
12875;BMP180;6505;51.114;13.128;2023-04-23T03:06:05;98688.00;;;20.40
12875;BMP180;6505;51.114;13.128;2023-04-23T03:08:34;98678.00;;;20.40
12875;BMP180;6505;51.114;13.128;2023-04-23T03:11:02;98684.00;;;20.40
12875;BMP180;6505;51.114;13.128;2023-04-23T03:13:30;98687.00;;;20.40
12875;BMP180;6505;51.114;13.128;2023-04-23T03:15:58;98673.00;;;20.40
12875;BMP180;6505;51.114;13.128;2023-04-23T03:18:26;98672.00;;;20.40
12875;BMP180;6505;51.114;13.128;2023-04-23T03:20:55;98678.00;;;20.40
12875;BMP180;6505;51.114;13.128;2023-04-23T03:23:25;98671.00;;;20.30
12875;BMP180;6505;51.114;13.128;2023-04-23T03:25:53;98675.00;;;20.40
12875;BMP180;6505;51.114;13.128;2023-04-23T03:28:21;98669.00;;;20.30
12875;BMP180;6505;51.114;13.128;2023-04-23T03:30:49;98674.00;;;20.30
12875;BMP180;6505;51.114;13.128;2023-04-23T03:33:17;98667.00;;;20.30
12875;BMP180;6505;51.114;13.128;2023-04-23T03:35:45;98662.00;;;20.30
12875;BMP180;6505;51.114;13.128;2023-04-23T03:38:18;98667.00;;;20.30
12875;BMP180;6505;51.114;13.128;2023-04-23T03:40:50;98656.00;;;20.30
12875;BMP180;6505;51.114;13.128;2023-04-23T03:43:18;98668.00;;;20.30
12875;BMP180;6505;51.114;13.128;2023-04-23T03:46:05;98664.00;;;20.30
12875;BMP180;6505;51.114;13.128;2023-04-23T03:48:37;98659.00;;;20.30
12875;BMP180;6505;51.114;13.128;2023-04-23T03:51:10;98657.00;;;20.30
12875;BMP180;6505;51.114;13.128;2023-04-23T03:53:44;98662.00;;;20.30
12875;BMP180;6505;51.114;13.128;2023-04-23T03:56:35;98668.00;;;20.30
12875;BMP180;6505;51.114;13.128;2023-04-23T03:59:18;98661.00;;;20.30
12875;BMP180;6505;51.114;13.128;2023-04-23T04:01:48;98658.00;;;20.20
12875;BMP180;6505;51.114;13.128;2023-04-23T04:04:17;98660.00;;;20.20
12875;BMP180;6505;51.114;13.128;2023-04-23T04:06:47;98664.00;;;20.20
12875;BMP180;6505;51.114;13.128;2023-04-23T04:09:15;98668.00;;;20.30
12875;BMP180;6505;51.114;13.128;2023-04-23T04:11:45;98662.00;;;20.20
12875;BMP180;6505;51.114;13.128;2023-04-23T04:14:14;98665.00;;;20.20
12875;BMP180;6505;51.114;13.128;2023-04-23T04:16:42;98668.00;;;20.20
12875;BMP180;6505;51.114;13.128;2023-04-23T04:19:10;98674.00;;;20.20
12875;BMP180;6505;51.114;13.128;2023-04-23T04:21:38;98678.00;;;20.20
12875;BMP180;6505;51.114;13.128;2023-04-23T04:24:06;98679.00;;;20.20
12875;BMP180;6505;51.114;13.128;2023-04-23T04:26:37;98685.00;;;20.20
12875;BMP180;6505;51.114;13.128;2023-04-23T04:29:06;98678.00;;;20.20
12875;BMP180;6505;51.114;13.128;2023-04-23T04:31:36;98682.00;;;20.20
12875;BMP180;6505;51.114;13.128;2023-04-23T04:34:04;98680.00;;;20.20
12875;BMP180;6505;51.114;13.128;2023-04-23T04:36:33;98685.00;;;20.20
12875;BMP180;6505;51.114;13.128;2023-04-23T04:39:01;98684.00;;;20.20
12875;BMP180;6505;51.114;13.128;2023-04-23T04:41:29;98688.00;;;20.20
12875;BMP180;6505;51.114;13.128;2023-04-23T04:43:57;98682.00;;;20.20
12875;BMP180;6505;51.114;13.128;2023-04-23T04:46:27;98681.00;;;20.20
12875;BMP180;6505;51.114;13.128;2023-04-23T04:48:57;98685.00;;;20.20
12875;BMP180;6505;51.114;13.128;2023-04-23T04:51:26;98679.00;;;20.10
12875;BMP180;6505;51.114;13.128;2023-04-23T04:53:54;98675.00;;;20.20
12875;BMP180;6505;51.114;13.128;2023-04-23T04:56:22;98685.00;;;20.10
12875;BMP180;6505;51.114;13.128;2023-04-23T04:58:51;98681.00;;;20.10
12875;BMP180;6505;51.114;13.128;2023-04-23T05:01:20;98691.00;;;20.10
12875;BMP180;6505;51.114;13.128;2023-04-23T05:03:50;98671.00;;;20.10
12875;BMP180;6505;51.114;13.128;2023-04-23T05:06:19;98684.00;;;20.10
12875;BMP180;6505;51.114;13.128;2023-04-23T05:08:47;98689.00;;;20.10
12875;BMP180;6505;51.114;13.128;2023-04-23T05:11:17;98702.00;;;20.10
12875;BMP180;6505;51.114;13.128;2023-04-23T05:13:46;98702.00;;;20.10
12875;BMP180;6505;51.114;13.128;2023-04-23T05:16:15;98702.00;;;20.10
12875;BMP180;6505;51.114;13.128;2023-04-23T05:18:43;98699.00;;;20.10
12875;BMP180;6505;51.114;13.128;2023-04-23T05:21:13;98697.00;;;20.10
12875;BMP180;6505;51.114;13.128;2023-04-23T05:23:41;98704.00;;;20.10
12875;BMP180;6505;51.114;13.128;2023-04-23T05:26:10;98701.00;;;20.10
12875;BMP180;6505;51.114;13.128;2023-04-23T05:28:38;98704.00;;;20.10
12875;BMP180;6505;51.114;13.128;2023-04-23T05:31:06;98708.00;;;20.10
12875;BMP180;6505;51.114;13.128;2023-04-23T05:33:34;98704.00;;;20.10
12875;BMP180;6505;51.114;13.128;2023-04-23T05:36:17;98708.00;;;20.10
12875;BMP180;6505;51.114;13.128;2023-04-23T05:38:46;98705.00;;;20.10
12875;BMP180;6505;51.114;13.128;2023-04-23T05:41:14;98701.00;;;20.10
12875;BMP180;6505;51.114;13.128;2023-04-23T05:43:42;98713.00;;;20.20
12875;BMP180;6505;51.114;13.128;2023-04-23T05:46:10;98716.00;;;20.20
12875;BMP180;6505;51.114;13.128;2023-04-23T05:48:38;98716.00;;;20.20
12875;BMP180;6505;51.114;13.128;2023-04-23T05:51:07;98717.00;;;20.20
12875;BMP180;6505;51.114;13.128;2023-04-23T05:53:36;98725.00;;;20.20
12875;BMP180;6505;51.114;13.128;2023-04-23T05:56:04;98728.00;;;20.30
12875;BMP180;6505;51.114;13.128;2023-04-23T05:58:32;98729.00;;;20.30
12875;BMP180;6505;51.114;13.128;2023-04-23T06:01:00;98728.00;;;20.30
12875;BMP180;6505;51.114;13.128;2023-04-23T06:03:29;98730.00;;;20.30
12875;BMP180;6505;51.114;13.128;2023-04-23T06:05:57;98741.00;;;20.30
12875;BMP180;6505;51.114;13.128;2023-04-23T06:08:25;98740.00;;;20.40
12875;BMP180;6505;51.114;13.128;2023-04-23T06:10:55;98741.00;;;20.40
12875;BMP180;6505;51.114;13.128;2023-04-23T06:13:23;98745.00;;;20.40
12875;BMP180;6505;51.114;13.128;2023-04-23T06:15:51;98752.00;;;20.40
12875;BMP180;6505;51.114;13.128;2023-04-23T06:18:19;98752.00;;;20.40
12875;BMP180;6505;51.114;13.128;2023-04-23T06:20:47;98747.00;;;20.50
12875;BMP180;6505;51.114;13.128;2023-04-23T06:23:17;98747.00;;;20.50
12875;BMP180;6505;51.114;13.128;2023-04-23T06:25:45;98756.00;;;20.50
12875;BMP180;6505;51.114;13.128;2023-04-23T06:28:14;98760.00;;;20.50
12875;BMP180;6505;51.114;13.128;2023-04-23T06:31:01;98765.00;;;20.50
12875;BMP180;6505;51.114;13.128;2023-04-23T06:33:29;98763.00;;;20.50
12875;BMP180;6505;51.114;13.128;2023-04-23T06:35:57;98761.00;;;20.50
12875;BMP180;6505;51.114;13.128;2023-04-23T06:38:25;98746.00;;;20.60
12875;BMP180;6505;51.114;13.128;2023-04-23T06:40:53;98764.00;;;20.60
12875;BMP180;6505;51.114;13.128;2023-04-23T06:43:23;98751.00;;;20.60
12875;BMP180;6505;51.114;13.128;2023-04-23T06:46:26;98762.00;;;20.60
12875;BMP180;6505;51.114;13.128;2023-04-23T06:48:54;98762.00;;;20.60
12875;BMP180;6505;51.114;13.128;2023-04-23T06:51:25;98768.00;;;20.60
12875;BMP180;6505;51.114;13.128;2023-04-23T06:53:53;98759.00;;;20.60
12875;BMP180;6505;51.114;13.128;2023-04-23T06:56:21;98767.00;;;20.70
12875;BMP180;6505;51.114;13.128;2023-04-23T06:58:50;98762.00;;;20.70
12875;BMP180;6505;51.114;13.128;2023-04-23T07:01:20;98765.00;;;20.70
12875;BMP180;6505;51.114;13.128;2023-04-23T07:03:48;98769.00;;;20.70
12875;BMP180;6505;51.114;13.128;2023-04-23T07:06:20;98770.00;;;20.70
12875;BMP180;6505;51.114;13.128;2023-04-23T07:08:48;98767.00;;;20.70
12875;BMP180;6505;51.114;13.128;2023-04-23T07:11:15;98768.00;;;20.80
12875;BMP180;6505;51.114;13.128;2023-04-23T07:13:44;98765.00;;;20.80
12875;BMP180;6505;51.114;13.128;2023-04-23T07:16:13;98774.00;;;20.80
12875;BMP180;6505;51.114;13.128;2023-04-23T07:18:42;98753.00;;;20.80
12875;BMP180;6505;51.114;13.128;2023-04-23T07:21:10;98765.00;;;20.80
12875;BMP180;6505;51.114;13.128;2023-04-23T07:23:38;98765.00;;;20.80
12875;BMP180;6505;51.114;13.128;2023-04-23T07:26:06;98764.00;;;20.80
12875;BMP180;6505;51.114;13.128;2023-04-23T07:28:34;98763.00;;;20.80
12875;BMP180;6505;51.114;13.128;2023-04-23T07:31:02;98751.00;;;20.90
12875;BMP180;6505;51.114;13.128;2023-04-23T07:33:31;98761.00;;;20.90
12875;BMP180;6505;51.114;13.128;2023-04-23T07:35:59;98755.00;;;20.90
12875;BMP180;6505;51.114;13.128;2023-04-23T07:38:27;98764.00;;;21.00
12875;BMP180;6505;51.114;13.128;2023-04-23T07:40:55;98761.00;;;21.00
12875;BMP180;6505;51.114;13.128;2023-04-23T07:43:23;98764.00;;;21.00
12875;BMP180;6505;51.114;13.128;2023-04-23T07:45:51;98765.00;;;21.10
12875;BMP180;6505;51.114;13.128;2023-04-23T07:48:19;98764.00;;;21.20
12875;BMP180;6505;51.114;13.128;2023-04-23T07:50:48;98769.00;;;21.20
12875;BMP180;6505;51.114;13.128;2023-04-23T07:53:17;98779.00;;;21.30
12875;BMP180;6505;51.114;13.128;2023-04-23T07:55:45;98769.00;;;21.40
12875;BMP180;6505;51.114;13.128;2023-04-23T07:58:12;98779.00;;;21.40
12875;BMP180;6505;51.114;13.128;2023-04-23T08:00:40;98774.00;;;21.50
12875;BMP180;6505;51.114;13.128;2023-04-23T08:03:08;98771.00;;;21.50
12875;BMP180;6505;51.114;13.128;2023-04-23T08:05:37;98767.00;;;21.60
12875;BMP180;6505;51.114;13.128;2023-04-23T08:08:11;98775.00;;;21.60
12875;BMP180;6505;51.114;13.128;2023-04-23T08:10:39;98776.00;;;21.60
12875;BMP180;6505;51.114;13.128;2023-04-23T08:13:07;98778.00;;;21.60
12875;BMP180;6505;51.114;13.128;2023-04-23T08:15:35;98781.00;;;21.70
12875;BMP180;6505;51.114;13.128;2023-04-23T08:18:04;98779.00;;;21.70
12875;BMP180;6505;51.114;13.128;2023-04-23T08:20:33;98777.00;;;21.70
12875;BMP180;6505;51.114;13.128;2023-04-23T08:23:01;98781.00;;;21.70
12875;BMP180;6505;51.114;13.128;2023-04-23T08:25:31;98773.00;;;21.70
12875;BMP180;6505;51.114;13.128;2023-04-23T08:28:00;98787.00;;;21.80
12875;BMP180;6505;51.114;13.128;2023-04-23T08:30:29;98797.00;;;21.80
12875;BMP180;6505;51.114;13.128;2023-04-23T08:32:57;98795.00;;;21.80
12875;BMP180;6505;51.114;13.128;2023-04-23T08:35:25;98795.00;;;21.80
12875;BMP180;6505;51.114;13.128;2023-04-23T08:37:53;98791.00;;;21.80
12875;BMP180;6505;51.114;13.128;2023-04-23T08:40:21;98794.00;;;21.80
12875;BMP180;6505;51.114;13.128;2023-04-23T08:42:56;98795.00;;;21.80
12875;BMP180;6505;51.114;13.128;2023-04-23T08:45:25;98783.00;;;21.80
12875;BMP180;6505;51.114;13.128;2023-04-23T08:47:58;98798.00;;;21.80
12875;BMP180;6505;51.114;13.128;2023-04-23T08:50:29;98808.00;;;21.80
12875;BMP180;6505;51.114;13.128;2023-04-23T08:52:58;98801.00;;;21.80
12875;BMP180;6505;51.114;13.128;2023-04-23T08:55:26;98802.00;;;21.80
12875;BMP180;6505;51.114;13.128;2023-04-23T08:57:57;98807.00;;;21.80
12875;BMP180;6505;51.114;13.128;2023-04-23T09:00:26;98801.00;;;21.80
12875;BMP180;6505;51.114;13.128;2023-04-23T09:02:54;98809.00;;;21.90
12875;BMP180;6505;51.114;13.128;2023-04-23T09:05:23;98802.00;;;21.90
12875;BMP180;6505;51.114;13.128;2023-04-23T09:07:51;98804.00;;;21.90
12875;BMP180;6505;51.114;13.128;2023-04-23T09:10:20;98802.00;;;21.90
12875;BMP180;6505;51.114;13.128;2023-04-23T09:12:48;98815.00;;;21.90
12875;BMP180;6505;51.114;13.128;2023-04-23T09:15:17;98808.00;;;21.90
12875;BMP180;6505;51.114;13.128;2023-04-23T09:17:46;98814.00;;;21.90
12875;BMP180;6505;51.114;13.128;2023-04-23T09:20:15;98806.00;;;21.90
12875;BMP180;6505;51.114;13.128;2023-04-23T09:22:46;98813.00;;;21.90
12875;BMP180;6505;51.114;13.128;2023-04-23T09:25:16;98805.00;;;21.90
12875;BMP180;6505;51.114;13.128;2023-04-23T09:27:46;98816.00;;;21.90
12875;BMP180;6505;51.114;13.128;2023-04-23T09:30:17;98818.00;;;21.90
12875;BMP180;6505;51.114;13.128;2023-04-23T09:32:46;98825.00;;;21.90
12875;BMP180;6505;51.114;13.128;2023-04-23T09:35:17;98824.00;;;21.90
12875;BMP180;6505;51.114;13.128;2023-04-23T09:37:50;98814.00;;;21.90
12875;BMP180;6505;51.114;13.128;2023-04-23T09:40:22;98814.00;;;22.00
12875;BMP180;6505;51.114;13.128;2023-04-23T09:42:51;98819.00;;;22.00
12875;BMP180;6505;51.114;13.128;2023-04-23T09:45:22;98829.00;;;22.00
12875;BMP180;6505;51.114;13.128;2023-04-23T09:47:53;98837.00;;;22.00
12875;BMP180;6505;51.114;13.128;2023-04-23T09:50:32;98833.00;;;22.00
12875;BMP180;6505;51.114;13.128;2023-04-23T09:53:01;98863.00;;;22.00
12875;BMP180;6505;51.114;13.128;2023-04-23T09:55:31;98860.00;;;22.00
12875;BMP180;6505;51.114;13.128;2023-04-23T09:58:02;98863.00;;;22.00
12875;BMP180;6505;51.114;13.128;2023-04-23T10:00:37;98857.00;;;21.90
12875;BMP180;6505;51.114;13.128;2023-04-23T10:03:07;98857.00;;;21.90
12875;BMP180;6505;51.114;13.128;2023-04-23T10:05:40;98867.00;;;21.90
12875;BMP180;6505;51.114;13.128;2023-04-23T10:08:13;98866.00;;;21.90
12875;BMP180;6505;51.114;13.128;2023-04-23T10:10:43;98873.00;;;21.90
12875;BMP180;6505;51.114;13.128;2023-04-23T10:13:33;98872.00;;;21.90
12875;BMP180;6505;51.114;13.128;2023-04-23T10:16:04;98867.00;;;21.80
12875;BMP180;6505;51.114;13.128;2023-04-23T10:18:50;98871.00;;;21.90
12875;BMP180;6505;51.114;13.128;2023-04-23T10:21:19;98871.00;;;21.90
12875;BMP180;6505;51.114;13.128;2023-04-23T10:23:50;98868.00;;;21.80
12875;BMP180;6505;51.114;13.128;2023-04-23T10:26:21;98866.00;;;21.80
12875;BMP180;6505;51.114;13.128;2023-04-23T10:28:53;98860.00;;;21.80
12875;BMP180;6505;51.114;13.128;2023-04-23T10:31:23;98857.00;;;21.80
12875;BMP180;6505;51.114;13.128;2023-04-23T10:33:55;98853.00;;;21.80
12875;BMP180;6505;51.114;13.128;2023-04-23T10:36:26;98862.00;;;21.80
12875;BMP180;6505;51.114;13.128;2023-04-23T10:38:55;98859.00;;;21.80
12875;BMP180;6505;51.114;13.128;2023-04-23T10:41:35;98860.00;;;21.70
12875;BMP180;6505;51.114;13.128;2023-04-23T10:44:04;98854.00;;;21.80
12875;BMP180;6505;51.114;13.128;2023-04-23T10:46:34;98853.00;;;21.70
12875;BMP180;6505;51.114;13.128;2023-04-23T10:49:07;98851.00;;;21.70
12875;BMP180;6505;51.114;13.128;2023-04-23T10:51:37;98853.00;;;21.70
12875;BMP180;6505;51.114;13.128;2023-04-23T10:54:08;98851.00;;;21.70
12875;BMP180;6505;51.114;13.128;2023-04-23T10:56:37;98847.00;;;21.70
12875;BMP180;6505;51.114;13.128;2023-04-23T10:59:07;98846.00;;;21.70
12875;BMP180;6505;51.114;13.128;2023-04-23T11:01:38;98847.00;;;21.60
12875;BMP180;6505;51.114;13.128;2023-04-23T11:04:20;98854.00;;;21.60
12875;BMP180;6505;51.114;13.128;2023-04-23T11:06:53;98852.00;;;21.60
12875;BMP180;6505;51.114;13.128;2023-04-23T11:09:31;98834.00;;;21.60
12875;BMP180;6505;51.114;13.128;2023-04-23T11:12:00;98840.00;;;21.60
12875;BMP180;6505;51.114;13.128;2023-04-23T11:14:40;98833.00;;;21.60
12875;BMP180;6505;51.114;13.128;2023-04-23T11:17:13;98830.00;;;21.60
12875;BMP180;6505;51.114;13.128;2023-04-23T11:20:05;98834.00;;;21.60
12875;BMP180;6505;51.114;13.128;2023-04-23T11:22:36;98843.00;;;21.60
12875;BMP180;6505;51.114;13.128;2023-04-23T11:25:09;98828.00;;;21.60
12875;BMP180;6505;51.114;13.128;2023-04-23T11:27:39;98831.00;;;21.60
12875;BMP180;6505;51.114;13.128;2023-04-23T11:30:12;98834.00;;;21.60
12875;BMP180;6505;51.114;13.128;2023-04-23T11:32:44;98829.00;;;21.60
12875;BMP180;6505;51.114;13.128;2023-04-23T11:35:16;98828.00;;;21.60
12875;BMP180;6505;51.114;13.128;2023-04-23T11:37:45;98815.00;;;21.60
12875;BMP180;6505;51.114;13.128;2023-04-23T11:40:16;98828.00;;;21.60
12875;BMP180;6505;51.114;13.128;2023-04-23T11:42:48;98821.00;;;21.60
12875;BMP180;6505;51.114;13.128;2023-04-23T11:45:19;98825.00;;;21.70
12875;BMP180;6505;51.114;13.128;2023-04-23T11:47:50;98816.00;;;21.60
12875;BMP180;6505;51.114;13.128;2023-04-23T11:50:24;98819.00;;;21.60
12875;BMP180;6505;51.114;13.128;2023-04-23T11:52:53;98803.00;;;21.70
12875;BMP180;6505;51.114;13.128;2023-04-23T11:55:22;98812.00;;;21.70
12875;BMP180;6505;51.114;13.128;2023-04-23T11:57:51;98822.00;;;21.70
12875;BMP180;6505;51.114;13.128;2023-04-23T12:00:22;98817.00;;;21.70
12875;BMP180;6505;51.114;13.128;2023-04-23T12:02:53;98805.00;;;21.70
12875;BMP180;6505;51.114;13.128;2023-04-23T12:05:26;98815.00;;;21.70
12875;BMP180;6505;51.114;13.128;2023-04-23T12:08:06;98816.00;;;21.70
12875;BMP180;6505;51.114;13.128;2023-04-23T12:10:42;98806.00;;;21.70
12875;BMP180;6505;51.114;13.128;2023-04-23T12:13:15;98809.00;;;21.70
12875;BMP180;6505;51.114;13.128;2023-04-23T12:15:48;98814.00;;;21.70
12875;BMP180;6505;51.114;13.128;2023-04-23T12:18:18;98807.00;;;21.70
12875;BMP180;6505;51.114;13.128;2023-04-23T12:20:46;98814.00;;;21.70
12875;BMP180;6505;51.114;13.128;2023-04-23T12:23:14;98810.00;;;21.80
12875;BMP180;6505;51.114;13.128;2023-04-23T12:25:42;98809.00;;;21.80
12875;BMP180;6505;51.114;13.128;2023-04-23T12:28:10;98803.00;;;21.80
12875;BMP180;6505;51.114;13.128;2023-04-23T12:30:43;98812.00;;;21.70
12875;BMP180;6505;51.114;13.128;2023-04-23T12:33:12;98810.00;;;21.80
12875;BMP180;6505;51.114;13.128;2023-04-23T12:35:44;98812.00;;;21.80
12875;BMP180;6505;51.114;13.128;2023-04-23T12:38:24;98796.00;;;21.80
12875;BMP180;6505;51.114;13.128;2023-04-23T12:40:54;98807.00;;;21.80
12875;BMP180;6505;51.114;13.128;2023-04-23T12:43:24;98804.00;;;21.80
12875;BMP180;6505;51.114;13.128;2023-04-23T12:45:55;98802.00;;;21.80
12875;BMP180;6505;51.114;13.128;2023-04-23T12:48:23;98801.00;;;21.90
12875;BMP180;6505;51.114;13.128;2023-04-23T12:50:52;98792.00;;;21.90
12875;BMP180;6505;51.114;13.128;2023-04-23T12:53:20;98785.00;;;21.90
12875;BMP180;6505;51.114;13.128;2023-04-23T12:55:49;98782.00;;;21.90
12875;BMP180;6505;51.114;13.128;2023-04-23T12:58:17;98774.00;;;21.90
12875;BMP180;6505;51.114;13.128;2023-04-23T13:00:45;98773.00;;;21.90
12875;BMP180;6505;51.114;13.128;2023-04-23T13:03:13;98772.00;;;21.90
12875;BMP180;6505;51.114;13.128;2023-04-23T13:05:41;98769.00;;;21.90
12875;BMP180;6505;51.114;13.128;2023-04-23T13:08:10;98774.00;;;21.90
12875;BMP180;6505;51.114;13.128;2023-04-23T13:10:38;98756.00;;;21.90
12875;BMP180;6505;51.114;13.128;2023-04-23T13:13:06;98753.00;;;22.00
12875;BMP180;6505;51.114;13.128;2023-04-23T13:15:34;98747.00;;;22.00
12875;BMP180;6505;51.114;13.128;2023-04-23T13:18:02;98749.00;;;22.00
12875;BMP180;6505;51.114;13.128;2023-04-23T13:20:30;98754.00;;;22.00
12875;BMP180;6505;51.114;13.128;2023-04-23T13:22:58;98739.00;;;22.00
12875;BMP180;6505;51.114;13.128;2023-04-23T13:25:28;98743.00;;;22.00
12875;BMP180;6505;51.114;13.128;2023-04-23T13:27:56;98738.00;;;22.00
12875;BMP180;6505;51.114;13.128;2023-04-23T13:30:24;98735.00;;;22.00
12875;BMP180;6505;51.114;13.128;2023-04-23T13:32:52;98733.00;;;22.10
12875;BMP180;6505;51.114;13.128;2023-04-23T13:35:22;98722.00;;;22.10
12875;BMP180;6505;51.114;13.128;2023-04-23T13:37:50;98718.00;;;22.10
12875;BMP180;6505;51.114;13.128;2023-04-23T13:40:18;98712.00;;;22.10
12875;BMP180;6505;51.114;13.128;2023-04-23T13:42:48;98717.00;;;22.10
12875;BMP180;6505;51.114;13.128;2023-04-23T13:45:16;98713.00;;;22.10
12875;BMP180;6505;51.114;13.128;2023-04-23T13:47:45;98721.00;;;22.10
12875;BMP180;6505;51.114;13.128;2023-04-23T13:50:13;98702.00;;;22.10
12875;BMP180;6505;51.114;13.128;2023-04-23T13:52:41;98698.00;;;22.10
12875;BMP180;6505;51.114;13.128;2023-04-23T13:55:09;98689.00;;;22.10
12875;BMP180;6505;51.114;13.128;2023-04-23T13:57:37;98690.00;;;22.10
12875;BMP180;6505;51.114;13.128;2023-04-23T14:00:08;98691.00;;;22.10
12875;BMP180;6505;51.114;13.128;2023-04-23T14:02:38;98691.00;;;22.20
12875;BMP180;6505;51.114;13.128;2023-04-23T14:05:08;98691.00;;;22.20
12875;BMP180;6505;51.114;13.128;2023-04-23T14:07:36;98685.00;;;22.20
12875;BMP180;6505;51.114;13.128;2023-04-23T14:10:05;98680.00;;;22.20
12875;BMP180;6505;51.114;13.128;2023-04-23T14:12:33;98679.00;;;22.20
12875;BMP180;6505;51.114;13.128;2023-04-23T14:15:01;98679.00;;;22.20
12875;BMP180;6505;51.114;13.128;2023-04-23T14:17:30;98661.00;;;22.20
12875;BMP180;6505;51.114;13.128;2023-04-23T14:19:58;98668.00;;;22.20
12875;BMP180;6505;51.114;13.128;2023-04-23T14:22:27;98667.00;;;22.20
12875;BMP180;6505;51.114;13.128;2023-04-23T14:25:01;98659.00;;;22.20